Time;durP1;ratioP1;P1;durP2;ratioP2;P2;SDS_P1;SDS_P2;PMS_P1;PMS_P2;Temp;Humidity;BMP_temperature;BMP_pressure;BME280_temperature;BME280_humidity;BME280_pressure;Samples;Min_cycle;Max_cycle;Signal;HPM_P1;HPM_P2
2022/08/21 00:00:11;;;;;;;412.65;368.65;;;;;;;24.20;80.97;98917.75;298633;33;1199;-74
2022/08/21 00:00:24;;;;;;;409.05;365.35;;;;;;;24.21;81.17;98920.25;289584;33;8969;-74
2022/08/21 00:00:34;;;;;;;414.85;370.92;;;;;;;24.20;81.20;98921.25;290546;33;8629;-74
2022/08/21 00:00:44;;;;;;;420.02;375.73;;;;;;;24.21;81.10;98922.94;292675;33;8950;-74
2022/08/21 00:00:55;;;;;;;420.33;375.77;;;;;;;24.23;81.25;98921.94;290730;34;848;-74
2022/08/21 00:01:08;;;;;;;417.63;373.25;;;;;;;24.23;81.15;98916.59;290218;33;6825;-74
2022/08/21 00:01:20;;;;;;;414.88;370.65;;;;;;;24.25;81.10;98920.78;288898;33;7620;-74
2022/08/21 00:03:35;;;;;;;380.90;320.78;;;;;;;24.18;80.02;98928.63;2492335;27;20266;-75
2022/08/21 00:03:45;;;;;;;409.57;366.03;;;;;;;24.18;80.15;98936.63;352708;28;824;-75
2022/08/21 00:03:56;;;;;;;407.27;363.83;;;;;;;24.19;80.37;98940.16;351376;28;998;-74
2022/08/21 00:04:06;;;;;;;403.83;360.53;;;;;;;24.18;80.27;98946.50;349861;28;1394;-75
2022/08/21 00:04:17;;;;;;;396.67;353.60;;;;;;;24.17;80.02;98939.47;348553;28;879;-75
2022/08/21 00:04:27;;;;;;;399.87;356.73;;;;;;;24.17;80.21;98944.81;347823;28;1469;-75
2022/08/21 00:04:38;;;;;;;405.00;361.73;;;;;;;24.17;80.10;98948.34;347222;28;742;-75
2022/08/21 00:04:48;;;;;;;408.93;365.60;;;;;;;24.16;80.24;98943.97;347248;28;821;-75
2022/08/21 00:04:59;;;;;;;402.20;359.17;;;;;;;24.18;80.34;98942.00;347173;28;970;-75
2022/08/21 00:05:09;;;;;;;396.30;353.40;;;;;;;24.19;79.99;98945.50;348517;28;1169;-74
2022/08/21 00:05:20;;;;;;;393.98;350.98;;;;;;;24.19;79.89;98946.34;349830;28;1350;-74
2022/08/21 00:05:30;;;;;;;399.83;356.33;;;;;;;24.17;80.10;98940.31;349930;28;838;-74
2022/08/21 00:05:45;;;;;;;405.67;361.83;;;;;;;24.18;79.98;98946.50;349794;28;1345;-74
2022/08/21 00:05:55;;;;;;;411.40;367.30;;;;;;;24.16;80.20;98954.69;350236;28;1343;-74
2022/08/21 00:06:06;;;;;;;414.55;370.27;;;;;;;24.16;80.46;98943.97;349792;28;1287;-74
2022/08/21 00:06:16;;;;;;;412.37;368.17;;;;;;;24.16;80.58;98948.50;347193;28;994;-74
2022/08/21 00:06:26;;;;;;;408.95;365.20;;;;;;;24.16;80.93;98951.19;344604;28;813;-74
2022/08/21 00:06:37;;;;;;;404.37;360.90;;;;;;;24.16;80.86;98948.50;345740;28;796;-74
2022/08/21 00:06:48;;;;;;;399.15;355.98;;;;;;;24.15;80.78;98946.81;345828;28;1224;-74
2022/08/21 00:06:59;;;;;;;398.67;355.43;;;;;;;24.15;80.67;98947.66;344885;28;1188;-74
2022/08/21 00:07:09;;;;;;;399.10;355.75;;;;;;;24.17;80.52;98952.84;345769;28;945;-74
2022/08/21 00:07:20;;;;;;;400.07;356.70;;;;;;;24.16;80.34;98949.34;344421;28;873;-74
2022/08/21 00:07:31;;;;;;;404.15;360.70;;;;;;;24.15;80.27;98949.50;345768;28;1016;-74
2022/08/21 00:07:42;;;;;;;404.15;360.75;;;;;;;24.17;80.00;98950.16;344785;28;952;-75
2022/08/21 00:07:52;;;;;;;406.63;363.30;;;;;;;24.16;80.10;98949.34;345740;28;1360;-75
2022/08/21 00:08:03;;;;;;;404.90;361.47;;;;;;;24.16;80.24;98954.69;341866;28;952;-75
2022/08/21 00:08:13;;;;;;;407.17;363.40;;;;;;;24.16;80.38;98946.66;344908;28;1057;-75
2022/08/21 00:08:24;;;;;;;403.43;359.87;;;;;;;24.16;80.12;98949.34;347124;28;776;-75
2022/08/21 00:08:34;;;;;;;403.05;359.48;;;;;;;24.16;80.08;98957.34;344693;28;1201;-75
2022/08/21 00:08:44;;;;;;;403.57;360.00;;;;;;;24.15;80.00;98958.34;348397;28;1359;-75
2022/08/21 00:08:55;;;;;;;402.13;358.67;;;;;;;24.14;80.00;98958.53;348713;28;965;-75
2022/08/21 00:09:06;;;;;;;396.38;353.40;;;;;;;24.14;79.35;98951.34;348593;28;1250;-74
2022/08/21 00:09:17;;;;;;;393.92;351.20;;;;;;;24.16;79.33;98954.69;347770;28;1291;-74
2022/08/21 00:09:27;;;;;;;400.27;357.13;;;;;;;24.14;79.50;98954.00;345090;28;1405;-74
2022/08/21 00:09:37;;;;;;;403.40;360.10;;;;;;;24.11;79.78;98957.00;343312;28;1354;-74
2022/08/21 00:09:48;;;;;;;404.05;360.60;;;;;;;24.10;79.43;98952.66;340290;29;1177;-74
2022/08/21 00:09:58;;;;;;;404.20;360.90;;;;;;;24.11;79.64;98954.34;339539;29;1305;-74
2022/08/21 00:10:09;;;;;;;404.73;361.40;;;;;;;24.07;80.13;98950.31;340293;28;1233;-74
2022/08/21 00:10:20;;;;;;;402.17;359.30;;;;;;;23.98;80.00;98945.97;337756;29;1274;-75
2022/08/21 00:10:30;;;;;;;403.52;360.67;;;;;;;23.85;80.62;98956.28;338664;29;972;-74
2022/08/21 00:10:41;;;;;;;406.02;362.85;;;;;;;23.69;80.87;98956.25;339212;29;807;-74
2022/08/21 00:10:52;;;;;;;414.20;370.53;;;;;;;23.54;81.47;98951.53;339192;29;955;-74
2022/08/21 00:11:03;;;;;;;419.23;375.33;;;;;;;23.46;81.96;98956.78;339114;29;901;-74
2022/08/21 00:11:13;;;;;;;423.75;379.60;;;;;;;23.43;81.94;98951.78;339154;29;1410;-74
2022/08/21 00:11:24;;;;;;;427.17;382.90;;;;;;;23.42;82.52;98958.13;341601;28;1341;-74
2022/08/21 00:11:34;;;;;;;434.00;389.50;;;;;;;23.36;82.93;98950.75;344365;28;1324;-74
2022/08/21 00:11:45;;;;;;;439.45;394.77;;;;;;;23.30;83.61;98962.09;343817;28;1368;-74
2022/08/21 00:11:56;;;;;;;439.38;394.65;;;;;;;23.25;83.22;98959.06;338833;29;1407;-74
2022/08/21 00:12:06;;;;;;;439.87;395.03;;;;;;;23.22;83.88;98959.38;337870;29;739;-74
2022/08/21 00:12:17;;;;;;;448.80;403.67;;;;;;;23.21;84.28;98963.03;336074;29;1675;-74
2022/08/21 00:12:27;;;;;;;453.20;407.93;;;;;;;23.22;84.35;98960.22;336704;29;1926;-74
2022/08/21 00:12:38;;;;;;;459.17;413.77;;;;;;;23.22;84.90;98959.38;337815;29;889;-74
2022/08/21 00:12:49;;;;;;;463.47;418.07;;;;;;;23.27;84.96;98956.22;337770;29;836;-74
2022/08/21 00:13:03;;;;;;;472.38;426.73;;;;;;;23.33;84.62;98959.09;337636;29;1407;-74
2022/08/21 00:13:14;;;;;;;469.33;423.80;;;;;;;23.39;84.18;98957.63;335687;29;942;-74
2022/08/21 00:13:24;;;;;;;462.70;417.33;;;;;;;23.43;84.00;98959.78;338623;29;1561;-74
2022/08/21 00:13:35;;;;;;;460.25;415.10;;;;;;;23.47;84.24;98961.13;335255;29;822;-74
2022/08/21 00:13:46;;;;;;;467.55;422.40;;;;;;;23.52;83.96;98956.16;337479;29;1671;-74
2022/08/21 00:13:56;;;;;;;472.63;427.27;;;;;;;23.57;83.83;98965.56;336461;29;1847;-74
2022/08/21 00:14:07;;;;;;;468.55;423.15;;;;;;;23.61;83.32;98959.72;336527;29;914;-74
2022/08/21 00:14:17;;;;;;;461.92;416.83;;;;;;;23.65;83.27;98960.25;333678;29;2398;-74
2022/08/21 00:14:28;;;;;;;461.47;416.37;;;;;;;23.68;83.06;98959.91;334882;29;2253;-74
2022/08/21 00:14:38;;;;;;;464.33;419.20;;;;;;;23.68;82.62;98959.91;333970;29;1288;-74
2022/08/21 00:14:49;;;;;;;461.53;416.33;;;;;;;23.68;82.88;98954.59;332583;29;1288;-74
2022/08/21 00:14:59;;;;;;;457.08;412.10;;;;;;;23.71;82.48;98948.91;332698;29;891;-74
2022/08/21 00:15:10;;;;;;;449.33;404.50;;;;;;;23.72;82.83;98956.75;332565;29;1120;-74
2022/08/21 00:15:23;;;;;;;453.38;408.27;;;;;;;23.75;82.58;98953.78;330095;29;1221;-74
2022/08/21 00:15:35;;;;;;;446.98;402.00;;;;;;;23.76;82.36;98955.44;327790;30;943;-74
2022/08/21 00:15:45;;;;;;;452.05;406.92;;;;;;;23.78;82.52;98955.28;329138;29;1879;-74
2022/08/21 00:15:56;;;;;;;451.43;406.33;;;;;;;23.79;82.56;98946.28;327370;29;2449;-74
2022/08/21 00:16:06;;;;;;;458.17;412.92;;;;;;;23.79;82.50;98946.28;328942;30;878;-74
2022/08/21 00:16:17;;;;;;;460.47;415.33;;;;;;;23.82;82.46;98951.28;326439;30;2559;-74
2022/08/21 00:16:27;;;;;;;461.27;416.10;;;;;;;23.82;81.95;98948.63;323309;30;2714;-74
2022/08/21 00:16:38;;;;;;;452.23;407.37;;;;;;;23.84;82.04;98949.25;322608;30;1209;-74
2022/08/21 00:16:48;;;;;;;443.92;399.42;;;;;;;23.84;82.15;98938.56;322715;30;2802;-74
2022/08/21 00:16:59;;;;;;;437.83;393.63;;;;;;;23.86;82.03;98941.91;326368;30;1833;-74
2022/08/21 00:17:09;;;;;;;442.25;398.00;;;;;;;23.87;82.03;98951.59;326255;30;1352;-75
2022/08/21 00:17:20;;;;;;;444.52;399.83;;;;;;;23.88;81.41;98942.59;320392;30;1209;-75
2022/08/21 00:17:30;;;;;;;444.17;399.53;;;;;;;23.88;81.76;98945.25;324215;30;1969;-74
2022/08/21 00:17:41;;;;;;;443.55;398.80;;;;;;;23.88;81.45;98939.91;324098;30;2323;-74
2022/08/21 00:17:52;;;;;;;447.60;402.83;;;;;;;23.90;81.54;98948.59;324093;30;1260;-74
2022/08/21 00:18:03;;;;;;;448.58;403.63;;;;;;;23.92;81.41;98940.44;323334;30;2724;-75
2022/08/21 00:18:14;;;;;;;445.48;400.70;;;;;;;23.93;81.59;98942.09;320334;30;3336;-75
2022/08/21 00:18:25;;;;;;;444.77;400.07;;;;;;;23.92;81.40;98946.59;317616;30;3248;-75
2022/08/21 00:18:35;;;;;;;442.83;398.33;;;;;;;23.94;80.98;98938.44;318106;31;1327;-73
2022/08/21 00:18:46;;;;;;;444.33;399.73;;;;;;;23.94;81.14;98935.75;318831;30;3411;-73
2022/08/21 00:18:56;;;;;;;440.83;396.27;;;;;;;23.94;81.15;98933.91;318336;30;3305;-73
2022/08/21 00:19:06;;;;;;;438.97;394.40;;;;;;;23.95;81.01;98940.09;316004;31;882;-73
2022/08/21 00:19:17;;;;;;;436.45;392.05;;;;;;;23.95;80.89;98940.94;316317;31;2439;-73
2022/08/21 00:19:27;;;;;;;438.97;394.53;;;;;;;23.96;81.36;98931.09;316692;30;2276;-73
2022/08/21 00:19:38;;;;;;;436.45;392.08;;;;;;;23.96;81.62;98939.94;316124;31;850;-73
2022/08/21 00:19:48;;;;;;;439.77;395.10;;;;;;;23.97;81.04;98938.09;312997;31;2985;-73
2022/08/21 00:19:59;;;;;;;435.52;391.02;;;;;;;23.96;81.29;98931.91;308846;31;3423;-73
2022/08/21 00:20:10;;;;;;;436.47;392.27;;;;;;;23.96;80.95;98942.59;305629;31;3493;-75
2022/08/21 00:20:21;;;;;;;429.50;385.67;;;;;;;23.96;80.79;98939.94;313657;31;839;-75
2022/08/21 00:20:31;;;;;;;430.70;386.67;;;;;;;23.99;81.04;98939.59;309582;31;4665;-74
2022/08/21 00:20:42;;;;;;;435.13;390.77;;;;;;;23.99;80.99;98936.94;309030;31;4535;-74
2022/08/21 00:20:53;;;;;;;436.10;391.75;;;;;;;23.99;81.34;98936.09;309415;31;860;-74
2022/08/21 00:21:03;;;;;;;430.00;385.93;;;;;;;23.99;81.18;98938.78;306566;31;4495;-74
2022/08/21 00:21:14;;;;;;;432.02;387.75;;;;;;;23.99;81.34;98942.28;306481;31;4780;-74
2022/08/21 00:21:25;;;;;;;428.27;384.13;;;;;;;23.99;81.22;98936.94;307745;32;3396;-74
2022/08/21 00:21:35;;;;;;;430.33;386.15;;;;;;;23.99;81.25;98931.59;306031;32;932;-74
2022/08/21 00:21:45;;;;;;;425.88;381.98;;;;;;;24.02;81.56;98938.44;303118;32;3264;-74
2022/08/21 00:21:56;;;;;;;429.57;385.30;;;;;;;24.00;81.71;98933.25;301325;32;4508;-74
2022/08/21 00:22:06;;;;;;;426.33;381.85;;;;;;;24.01;82.01;98928.75;301914;32;798;-74
2022/08/21 00:22:17;;;;;;;428.97;384.00;;;;;;;24.01;81.97;98940.28;298598;32;4974;-74
2022/08/21 00:22:27;;;;;;;425.60;380.75;;;;;;;24.02;81.91;98935.78;298029;32;5127;-74
2022/08/21 00:22:39;;;;;;;430.33;385.50;;;;;;;24.01;81.76;98932.25;300914;32;997;-74
2022/08/21 00:22:50;;;;;;;424.92;380.52;;;;;;;24.00;81.68;98938.59;298663;33;1015;-74
2022/08/21 00:23:00;;;;;;;426.10;381.80;;;;;;;24.02;81.93;98936.59;294796;33;6486;-74
2022/08/21 00:23:11;;;;;;;422.88;378.73;;;;;;;24.02;81.77;98935.78;291598;33;6229;-74
2022/08/21 00:23:21;;;;;;;418.60;374.63;;;;;;;24.02;81.80;98933.09;291709;33;828;-74
2022/08/21 00:23:34;;;;;;;416.35;372.48;;;;;;;24.03;81.81;98932.09;288974;33;6518;-74
2022/08/21 00:23:44;;;;;;;419.90;375.80;;;;;;;24.02;81.64;98936.59;290872;33;4753;-74
2022/08/21 00:23:54;;;;;;;425.23;380.90;;;;;;;24.02;81.50;98925.91;290742;33;5729;-74
2022/08/21 00:24:05;;;;;;;429.53;385.00;;;;;;;24.01;81.81;98932.25;287925;34;824;-74
2022/08/21 00:24:15;;;;;;;428.10;383.65;;;;;;;24.01;81.84;98929.59;286232;34;6578;-74
2022/08/21 00:24:26;;;;;;;429.47;384.97;;;;;;;24.01;82.25;98929.59;285066;33;7484;-74
2022/08/21 00:24:36;;;;;;;426.25;381.83;;;;;;;24.02;82.44;98925.06;289856;34;935;-74
2022/08/21 00:24:47;;;;;;;424.90;380.47;;;;;;;24.01;82.28;98936.78;288356;33;7359;-74
2022/08/21 00:24:57;;;;;;;418.08;373.95;;;;;;;24.01;82.32;98934.09;287089;34;9282;-74
2022/08/21 00:25:08;;;;;;;418.10;374.10;;;;;;;23.99;82.11;98936.94;288145;34;852;-74
2022/08/21 00:25:19;;;;;;;422.27;378.23;;;;;;;23.98;81.89;98937.94;278546;34;9009;-74
2022/08/21 00:25:29;;;;;;;423.52;379.35;;;;;;;23.98;81.59;98934.44;277035;35;8983;-74
2022/08/21 00:25:40;;;;;;;420.60;376.43;;;;;;;23.98;81.89;98935.25;275105;35;10126;-74
2022/08/21 00:25:51;;;;;;;416.75;372.85;;;;;;;23.96;81.42;98931.91;274427;36;899;-74
2022/08/21 00:26:01;;;;;;;411.90;368.20;;;;;;;23.95;81.27;98930.25;273754;35;6959;-74
2022/08/21 00:27:55;;;;;;;398.77;350.93;;;;;;;23.94;81.17;98917.88;2500123;27;20262;-73
2022/08/21 00:28:06;;;;;;;416.97;372.67;;;;;;;23.95;80.93;98927.56;351274;28;1335;-73
2022/08/21 00:28:16;;;;;;;419.85;375.63;;;;;;;23.94;80.43;98922.38;347578;28;1492;-73
2022/08/21 00:28:27;;;;;;;411.85;368.02;;;;;;;23.94;80.82;98923.22;348656;28;1126;-73
2022/08/21 00:28:37;;;;;;;411.40;367.53;;;;;;;23.96;80.31;98931.91;348448;28;1449;-73
2022/08/21 00:28:48;;;;;;;412.50;368.52;;;;;;;23.94;80.07;98923.22;347199;28;887;-73
2022/08/21 00:28:59;;;;;;;418.08;373.75;;;;;;;23.95;79.99;98919.56;348518;28;1656;-74
2022/08/21 00:29:09;;;;;;;418.47;374.33;;;;;;;23.95;79.82;98924.91;348497;28;799;-74
2022/08/21 00:29:19;;;;;;;416.05;372.10;;;;;;;23.95;79.78;98916.03;348431;28;1427;-74
2022/08/21 00:29:30;;;;;;;410.60;366.83;;;;;;;23.96;79.55;98915.88;350200;28;855;-74
2022/08/21 00:29:40;;;;;;;408.67;364.80;;;;;;;23.97;79.88;98917.56;349901;28;952;-74
2022/08/21 00:29:53;;;;;;;409.47;365.23;;;;;;;23.97;79.62;98916.72;348414;28;1334;-74
2022/08/21 00:30:05;;;;;;;417.10;372.42;;;;;;;23.96;79.72;98918.56;348396;28;1347;-74
2022/08/21 00:30:16;;;;;;;414.05;369.77;;;;;;;23.97;79.31;98912.19;347170;28;939;-74
2022/08/21 00:30:27;;;;;;;413.88;370.02;;;;;;;23.99;79.61;98918.22;344556;28;957;-74
2022/08/21 00:30:37;;;;;;;412.88;369.13;;;;;;;23.99;79.54;98915.53;349739;28;1316;-74
2022/08/21 00:30:48;;;;;;;414.30;370.33;;;;;;;24.00;79.73;98914.53;351248;28;1192;-75
2022/08/21 00:30:58;;;;;;;410.60;366.70;;;;;;;24.01;80.03;98916.22;348144;28;1381;-75
2022/08/21 00:31:09;;;;;;;407.97;364.17;;;;;;;24.02;80.00;98919.72;345846;28;1351;-75
2022/08/21 00:31:19;;;;;;;410.40;366.40;;;;;;;24.02;79.85;98920.56;345717;28;932;-75
2022/08/21 00:31:30;;;;;;;413.93;369.80;;;;;;;24.03;80.29;98918.72;343079;28;872;-75
2022/08/21 00:31:41;;;;;;;412.45;368.45;;;;;;;24.01;79.89;98918.91;345619;28;1384;-75
2022/08/21 00:31:51;;;;;;;413.50;369.73;;;;;;;24.01;80.08;98924.25;342937;28;1444;-75
2022/08/21 00:32:02;;;;;;;410.20;366.43;;;;;;;24.01;80.14;98929.59;346109;28;1183;-75
2022/08/21 00:32:12;;;;;;;410.75;366.95;;;;;;;24.02;80.04;98923.25;344423;28;813;-75
2022/08/21 00:32:24;;;;;;;402.17;358.57;;;;;;;24.04;80.16;98923.91;343085;28;1395;-75
2022/08/21 00:32:36;;;;;;;398.52;355.13;;;;;;;24.02;80.24;98920.56;345222;28;1321;-74
2022/08/21 00:32:46;;;;;;;404.15;360.52;;;;;;;24.03;80.23;98922.25;344553;28;884;-74
2022/08/21 00:32:57;;;;;;;408.73;364.73;;;;;;;24.03;80.47;98916.91;344387;28;1462;-74
2022/08/21 00:33:08;;;;;;;417.17;372.67;;;;;;;24.04;80.46;98923.91;344552;28;762;-74
2022/08/21 00:33:18;;;;;;;413.00;368.52;;;;;;;24.03;80.49;98924.91;344987;28;1361;-74
2022/08/21 00:33:29;;;;;;;412.33;368.10;;;;;;;24.03;81.22;98921.41;344394;28;903;-74
2022/08/21 00:33:39;;;;;;;408.08;364.05;;;;;;;24.04;80.83;98921.25;343233;28;825;-74
2022/08/21 00:33:49;;;;;;;407.17;363.43;;;;;;;24.02;81.27;98920.56;345992;28;1117;-74
2022/08/21 00:34:00;;;;;;;407.10;363.52;;;;;;;24.05;81.35;98925.59;344125;28;1036;-74
2022/08/21 00:34:10;;;;;;;407.10;363.50;;;;;;;24.05;81.82;98925.59;341724;28;1970;-74
2022/08/21 00:34:21;;;;;;;410.77;366.95;;;;;;;24.05;81.47;98924.75;340609;28;2663;-74
2022/08/21 00:34:31;;;;;;;408.60;364.90;;;;;;;24.06;82.10;98927.25;341192;28;1203;-74
2022/08/21 00:34:41;;;;;;;406.23;362.65;;;;;;;24.07;81.93;98931.59;343155;28;845;-74
2022/08/21 00:34:52;;;;;;;402.53;359.23;;;;;;;24.06;82.14;98927.25;342686;28;1494;-74
2022/08/21 00:35:04;;;;;;;404.52;360.95;;;;;;;24.06;81.91;98927.25;340317;29;1403;-74
2022/08/21 00:35:16;;;;;;;402.75;359.05;;;;;;;24.06;81.89;98927.25;338837;29;906;-74
2022/08/21 00:35:29;;;;;;;401.70;357.70;;;;;;;24.06;81.95;98929.94;340473;29;1090;-74
2022/08/21 00:35:41;;;;;;;405.45;361.33;;;;;;;24.08;82.09;98929.75;337888;29;1068;-74
2022/08/21 00:35:51;;;;;;;405.20;361.33;;;;;;;24.06;82.33;98924.59;334704;29;1430;-74
2022/08/21 00:36:02;;;;;;;407.08;363.17;;;;;;;24.06;82.36;98924.59;337490;29;1516;-74
2022/08/21 00:36:12;;;;;;;407.87;363.83;;;;;;;24.07;82.33;98928.94;339110;29;747;-74
2022/08/21 00:36:23;;;;;;;406.27;362.23;;;;;;;24.06;82.71;98929.94;336250;29;1427;-75
2022/08/21 00:36:34;;;;;;;409.47;365.50;;;;;;;24.05;82.67;98930.09;338867;28;1704;-74
2022/08/21 00:36:44;;;;;;;409.42;365.60;;;;;;;24.05;82.64;98930.94;337868;28;1513;-74
2022/08/21 00:36:54;;;;;;;405.70;361.85;;;;;;;24.04;82.41;98931.94;341778;28;1482;-74
2022/08/21 00:37:05;;;;;;;403.67;359.83;;;;;;;24.02;82.30;98931.25;341228;28;978;-74
2022/08/21 00:37:15;;;;;;;403.07;359.07;;;;;;;24.03;82.33;98932.94;338772;29;980;-74
2022/08/21 00:37:26;;;;;;;409.42;365.48;;;;;;;24.01;81.86;98931.41;336567;29;858;-74
2022/08/21 00:37:38;;;;;;;410.77;366.67;;;;;;;24.01;81.59;98931.41;334969;29;1486;-74
2022/08/21 00:37:48;;;;;;;408.92;365.08;;;;;;;23.98;81.36;98924.56;336939;29;1467;-74
2022/08/21 00:37:59;;;;;;;408.93;364.87;;;;;;;23.97;80.77;98928.25;334887;29;2058;-74
2022/08/21 00:38:09;;;;;;;414.27;369.90;;;;;;;23.97;80.37;98928.25;332869;29;776;-73
2022/08/21 00:38:20;;;;;;;419.80;375.10;;;;;;;23.96;80.39;98925.72;334859;29;1748;-73
2022/08/21 00:38:30;;;;;;;420.00;375.42;;;;;;;23.96;80.70;98921.22;334770;29;2004;-73
2022/08/21 00:38:40;;;;;;;419.10;374.50;;;;;;;23.95;80.57;98924.91;335176;29;1219;-73
2022/08/21 00:38:51;;;;;;;416.47;372.13;;;;;;;23.96;80.46;98921.22;335540;29;2152;-73
2022/08/21 00:39:02;;;;;;;413.05;368.75;;;;;;;23.96;80.36;98926.56;335491;29;1756;-73
2022/08/21 00:39:12;;;;;;;411.48;367.25;;;;;;;23.96;80.58;98926.56;333838;29;1404;-73
2022/08/21 00:39:22;;;;;;;409.93;365.73;;;;;;;23.96;80.13;98921.22;331460;29;901;-75
2022/08/21 00:39:33;;;;;;;409.98;365.95;;;;;;;23.97;80.13;98922.91;330622;29;1208;-74
2022/08/21 00:39:43;;;;;;;413.93;369.83;;;;;;;23.97;79.84;98920.22;331302;29;1555;-74
2022/08/21 00:39:54;;;;;;;415.53;371.40;;;;;;;23.99;79.99;98928.06;327750;30;860;-74
2022/08/21 00:40:05;;;;;;;415.63;371.23;;;;;;;23.97;80.17;98924.72;327985;30;2070;-74
2022/08/21 00:40:18;;;;;;;409.50;365.27;;;;;;;23.96;80.25;98920.38;326608;29;2326;-74
2022/08/21 00:40:59;;;;;;;411.38;367.33;;;;;;;23.97;80.11;98917.56;328454;29;2577;-74
2022/08/21 00:41:10;;;;;;;416.00;371.90;;;;;;;23.98;80.21;98923.72;321433;30;1141;-74
2022/08/21 00:41:22;;;;;;;414.27;369.95;;;;;;;23.97;80.54;98925.56;323066;30;1770;-74
2022/08/21 00:41:33;;;;;;;417.15;372.95;;;;;;;23.97;80.06;98922.91;322474;30;1517;-74
2022/08/21 00:41:44;;;;;;;415.25;371.05;;;;;;;23.98;80.18;98918.38;322321;30;2214;-74
2022/08/21 00:41:54;;;;;;;416.17;372.13;;;;;;;23.98;80.42;98921.91;318185;31;1547;-74
2022/08/21 00:42:05;;;;;;;415.50;371.30;;;;;;;24.00;80.22;98921.72;320043;30;2615;-74
2022/08/21 00:42:15;;;;;;;408.83;364.93;;;;;;;23.99;80.47;98920.91;320607;30;3021;-74
2022/08/21 00:42:27;;;;;;;410.15;366.02;;;;;;;24.01;80.30;98921.56;316038;31;850;-74
2022/08/21 00:42:38;;;;;;;413.98;369.67;;;;;;;24.01;80.23;98918.91;320812;30;3455;-74
2022/08/21 00:42:49;;;;;;;414.05;369.77;;;;;;;24.02;80.32;98920.56;320641;30;3314;-74
2022/08/21 00:43:02;;;;;;;415.60;371.35;;;;;;;24.02;80.29;98915.22;319970;30;3572;-74
2022/08/21 00:43:14;;;;;;;412.02;367.80;;;;;;;24.03;81.03;98911.53;314879;31;835;-74
2022/08/21 00:43:27;;;;;;;403.27;359.23;;;;;;;24.01;80.26;98913.53;319450;30;1055;-74
2022/08/21 00:43:38;;;;;;;404.35;360.60;;;;;;;23.95;80.15;98921.38;319864;30;1985;-74
2022/08/21 00:43:49;;;;;;;406.70;363.05;;;;;;;23.91;80.11;98910.19;315538;31;2263;-75
2022/08/21 00:44:01;;;;;;;414.05;370.05;;;;;;;23.89;79.93;98914.84;313110;31;2945;-75
2022/08/21 00:44:12;;;;;;;418.60;374.30;;;;;;;23.85;80.20;98908.16;310466;31;836;-75
2022/08/21 00:44:23;;;;;;;421.05;376.88;;;;;;;23.83;80.20;98905.66;313845;31;3637;-74
2022/08/21 00:44:33;;;;;;;424.60;380.33;;;;;;;23.83;80.63;98899.47;315164;31;3937;-74
2022/08/21 00:44:47;;;;;;;424.13;379.75;;;;;;;23.82;80.91;98903.19;311821;31;4501;-73
2022/08/21 00:44:58;;;;;;;423.75;379.30;;;;;;;23.81;80.80;98910.38;307484;32;904;-73
2022/08/21 00:45:08;;;;;;;428.20;383.67;;;;;;;23.81;81.37;98906.84;309495;31;4563;-73
2022/08/21 00:45:20;;;;;;;422.80;378.42;;;;;;;23.80;81.42;98899.84;310449;31;3522;-73
2022/08/21 00:45:31;;;;;;;425.73;381.38;;;;;;;23.82;81.70;98903.19;309031;31;4695;-74
2022/08/21 00:45:42;;;;;;;426.23;381.67;;;;;;;23.83;81.65;98902.97;310337;31;862;-74
2022/08/21 00:45:53;;;;;;;432.97;388.17;;;;;;;23.84;81.87;98901.16;311414;31;2241;-74
2022/08/21 00:46:04;;;;;;;426.83;382.20;;;;;;;23.85;82.15;98897.47;310264;31;2944;-75
2022/08/21 00:46:14;;;;;;;427.17;382.88;;;;;;;23.88;82.17;98907.84;306071;32;4309;-75
2022/08/21 00:46:24;;;;;;;427.70;383.30;;;;;;;23.89;82.02;98901.50;303945;32;793;-75
2022/08/21 00:46:35;;;;;;;431.00;386.67;;;;;;;23.90;81.96;98905.84;304583;32;5284;-75
2022/08/21 00:46:46;;;;;;;428.90;384.50;;;;;;;23.91;81.54;98899.50;304813;32;6458;-75
2022/08/21 00:46:57;;;;;;;424.55;380.40;;;;;;;23.91;81.65;98902.16;303662;32;1511;-75
2022/08/21 00:47:08;;;;;;;422.88;378.83;;;;;;;23.91;81.70;98904.84;300044;32;5831;-75
2022/08/21 00:47:18;;;;;;;422.05;378.05;;;;;;;23.92;81.81;98897.66;299576;32;5691;-75
2022/08/21 00:47:29;;;;;;;425.63;381.37;;;;;;;23.92;81.77;98898.50;301215;32;4797;-75
2022/08/21 00:47:39;;;;;;;423.75;379.55;;;;;;;23.94;81.60;98896.50;299874;32;992;-75
2022/08/21 00:47:50;;;;;;;419.97;375.63;;;;;;;23.93;81.87;98900.16;296800;32;6145;-75
2022/08/21 00:48:01;;;;;;;418.77;374.40;;;;;;;23.94;82.09;98903.69;294936;33;3422;-75
2022/08/21 00:48:11;;;;;;;420.98;376.52;;;;;;;23.94;81.82;98898.31;292713;33;1494;-75
2022/08/21 00:48:22;;;;;;;424.27;379.53;;;;;;;23.92;82.02;98898.50;295325;33;4691;-75
2022/08/21 00:48:32;;;;;;;419.83;375.17;;;;;;;23.94;82.40;98895.66;292806;33;6328;-75
2022/08/21 00:48:43;;;;;;;414.58;370.30;;;;;;;23.94;82.18;98901.84;292488;33;1559;-75
2022/08/21 00:48:53;;;;;;;412.13;368.13;;;;;;;23.93;82.41;98905.50;291683;33;7552;-75
2022/08/21 00:49:04;;;;;;;410.33;366.33;;;;;;;23.93;82.41;98900.16;290168;33;7931;-75
2022/08/21 00:49:16;;;;;;;411.70;367.45;;;;;;;23.94;82.12;98909.84;286807;34;8159;-75
2022/08/21 00:49:26;;;;;;;412.17;367.80;;;;;;;23.94;82.38;98901.84;286026;34;1450;-75
2022/08/21 00:49:37;;;;;;;413.73;369.48;;;;;;;23.93;82.29;98902.00;287185;34;7874;-75
2022/08/21 00:49:48;;;;;;;414.08;369.95;;;;;;;23.93;82.45;98905.50;284827;34;6714;-75
2022/08/21 00:49:58;;;;;;;413.23;369.13;;;;;;;23.93;82.77;98902.00;283366;34;865;-75
2022/08/21 00:50:09;;;;;;;412.27;368.33;;;;;;;23.94;82.73;98909.84;282652;34;1402;-75
2022/08/21 00:50:20;;;;;;;411.98;368.05;;;;;;;23.93;82.68;98904.69;278542;35;5570;-75
2022/08/21 00:50:32;;;;;;;412.70;368.70;;;;;;;23.95;82.93;98906.19;277047;35;6637;-75
2022/08/21 00:50:55;;;;;;;413.00;368.88;;;;;;;23.94;82.97;98907.19;279686;35;858;-75
2022/08/21 00:51:12;;;;;;;411.73;368.23;;;;;;;23.95;83.12;98911.53;279288;35;9924;-74
2022/08/21 00:52:51;;;;;;;380.64;322.62;;;;;;;23.97;82.71;98909.53;2500165;27;20272;-74
2022/08/21 00:53:03;;;;;;;411.67;367.67;;;;;;;23.97;82.62;98908.69;351197;28;1290;-74
2022/08/21 00:53:13;;;;;;;414.30;370.13;;;;;;;23.97;82.56;98906.84;347048;28;1278;-74
2022/08/21 00:53:23;;;;;;;410.83;366.97;;;;;;;23.97;82.37;98908.69;347031;28;856;-74
2022/08/21 00:53:35;;;;;;;409.33;365.42;;;;;;;23.96;82.17;98910.53;347189;28;813;-74
2022/08/21 00:53:46;;;;;;;406.75;362.73;;;;;;;23.99;82.36;98912.03;348336;28;1508;-74
2022/08/21 00:53:57;;;;;;;407.03;362.87;;;;;;;24.00;82.28;98909.19;349897;28;1211;-74
2022/08/21 00:54:08;;;;;;;407.08;363.23;;;;;;;23.98;82.39;98911.19;348562;28;1386;-74
2022/08/21 00:54:20;;;;;;;407.73;364.10;;;;;;;23.99;82.11;98910.19;349691;28;1380;-74
2022/08/21 00:54:31;;;;;;;405.02;361.23;;;;;;;23.97;82.32;98914.88;349252;28;1544;-74
2022/08/21 00:54:41;;;;;;;406.33;362.47;;;;;;;23.95;82.33;98908.84;350005;28;843;-74
2022/08/21 00:54:52;;;;;;;408.10;364.23;;;;;;;23.96;82.77;98909.69;348590;28;851;-74
2022/08/21 00:55:03;;;;;;;414.80;370.98;;;;;;;23.94;82.59;98907.19;348586;28;911;-74
2022/08/21 00:55:13;;;;;;;409.65;365.95;;;;;;;23.96;82.77;98905.19;346984;28;952;-74
2022/08/21 00:55:24;;;;;;;409.07;365.37;;;;;;;23.97;82.99;98906.84;347644;28;860;-75
2022/08/21 00:55:34;;;;;;;408.52;364.77;;;;;;;23.99;82.96;98907.53;347218;28;785;-75
2022/08/21 00:55:45;;;;;;;412.50;368.40;;;;;;;23.99;83.26;98909.38;347177;28;849;-74
2022/08/21 00:55:55;;;;;;;407.17;363.42;;;;;;;23.99;83.33;98910.19;346835;28;1463;-74